sensor_id;sensor_type;location;lat;lon;timestamp;temperature;humidity
26599;DHT22;14240;51.064;16.612;2023-05-29T00:01:48;12.10;99.90
26599;DHT22;14240;51.064;16.612;2023-05-29T00:04:13;12.10;99.90
26599;DHT22;14240;51.064;16.612;2023-05-29T00:06:39;12.10;99.90
26599;DHT22;14240;51.064;16.612;2023-05-29T00:09:06;12.00;99.90
26599;DHT22;14240;51.064;16.612;2023-05-29T00:11:32;12.00;99.90
26599;DHT22;14240;51.064;16.612;2023-05-29T00:13:57;11.80;99.90
26599;DHT22;14240;51.064;16.612;2023-05-29T00:16:23;11.80;99.90
26599;DHT22;14240;51.064;16.612;2023-05-29T00:18:49;11.70;99.90
26599;DHT22;14240;51.064;16.612;2023-05-29T00:21:17;11.60;99.90
26599;DHT22;14240;51.064;16.612;2023-05-29T00:23:43;11.60;99.90
26599;DHT22;14240;51.064;16.612;2023-05-29T00:26:08;11.40;99.90
26599;DHT22;14240;51.064;16.612;2023-05-29T00:28:35;11.30;99.90
26599;DHT22;14240;51.064;16.612;2023-05-29T00:31:01;11.30;99.90
26599;DHT22;14240;51.064;16.612;2023-05-29T00:33:27;11.20;99.90
26599;DHT22;14240;51.064;16.612;2023-05-29T00:35:53;11.20;99.90
26599;DHT22;14240;51.064;16.612;2023-05-29T00:38:19;11.20;99.90
26599;DHT22;14240;51.064;16.612;2023-05-29T00:40:45;11.10;99.90
26599;DHT22;14240;51.064;16.612;2023-05-29T00:43:10;11.10;99.90
26599;DHT22;14240;51.064;16.612;2023-05-29T00:45:39;11.10;99.90
26599;DHT22;14240;51.064;16.612;2023-05-29T00:48:08;11.00;99.90
26599;DHT22;14240;51.064;16.612;2023-05-29T00:50:34;11.00;99.90
26599;DHT22;14240;51.064;16.612;2023-05-29T00:53:01;11.00;99.90
26599;DHT22;14240;51.064;16.612;2023-05-29T00:55:28;10.90;99.90
26599;DHT22;14240;51.064;16.612;2023-05-29T00:57:54;10.90;99.90
26599;DHT22;14240;51.064;16.612;2023-05-29T01:00:23;10.90;99.90
26599;DHT22;14240;51.064;16.612;2023-05-29T01:02:53;10.90;99.90
26599;DHT22;14240;51.064;16.612;2023-05-29T01:05:26;10.90;99.90
26599;DHT22;14240;51.064;16.612;2023-05-29T01:07:56;10.80;99.90
26599;DHT22;14240;51.064;16.612;2023-05-29T01:10:26;10.80;99.90
26599;DHT22;14240;51.064;16.612;2023-05-29T01:13:06;10.70;99.90
26599;DHT22;14240;51.064;16.612;2023-05-29T01:28:57;10.60;99.90
26599;DHT22;14240;51.064;16.612;2023-05-29T01:31:26;10.50;99.90
26599;DHT22;14240;51.064;16.612;2023-05-29T01:33:58;10.50;99.90
26599;DHT22;14240;51.064;16.612;2023-05-29T01:36:26;10.50;99.90
26599;DHT22;14240;51.064;16.612;2023-05-29T01:38:57;10.50;99.90
26599;DHT22;14240;51.064;16.612;2023-05-29T01:41:29;10.50;99.90
26599;DHT22;14240;51.064;16.612;2023-05-29T01:43:56;10.50;99.90
26599;DHT22;14240;51.064;16.612;2023-05-29T01:46:23;10.40;99.90
26599;DHT22;14240;51.064;16.612;2023-05-29T01:48:51;10.40;99.90
26599;DHT22;14240;51.064;16.612;2023-05-29T01:51:22;10.40;99.90
26599;DHT22;14240;51.064;16.612;2023-05-29T01:53:51;10.40;99.90
26599;DHT22;14240;51.064;16.612;2023-05-29T01:56:19;10.30;99.90
26599;DHT22;14240;51.064;16.612;2023-05-29T01:58:51;10.30;99.90
26599;DHT22;14240;51.064;16.612;2023-05-29T02:01:23;10.30;99.90
26599;DHT22;14240;51.064;16.612;2023-05-29T02:03:50;10.30;99.90
26599;DHT22;14240;51.064;16.612;2023-05-29T02:06:18;10.30;99.90
26599;DHT22;14240;51.064;16.612;2023-05-29T02:08:45;10.20;99.90
26599;DHT22;14240;51.064;16.612;2023-05-29T02:11:18;10.20;99.90
26599;DHT22;14240;51.064;16.612;2023-05-29T02:13:50;10.20;99.90
26599;DHT22;14240;51.064;16.612;2023-05-29T02:16:16;10.10;99.90
26599;DHT22;14240;51.064;16.612;2023-05-29T02:18:42;10.10;99.90
26599;DHT22;14240;51.064;16.612;2023-05-29T02:21:08;10.10;99.90
26599;DHT22;14240;51.064;16.612;2023-05-29T02:23:34;10.10;99.90
26599;DHT22;14240;51.064;16.612;2023-05-29T02:26:00;10.20;99.90
26599;DHT22;14240;51.064;16.612;2023-05-29T02:28:25;10.10;99.90
26599;DHT22;14240;51.064;16.612;2023-05-29T02:30:56;10.10;99.90
26599;DHT22;14240;51.064;16.612;2023-05-29T02:33:30;10.20;99.90
26599;DHT22;14240;51.064;16.612;2023-05-29T02:35:57;10.10;99.90
26599;DHT22;14240;51.064;16.612;2023-05-29T02:38:23;10.10;99.90
26599;DHT22;14240;51.064;16.612;2023-05-29T02:40:50;10.10;99.90
26599;DHT22;14240;51.064;16.612;2023-05-29T02:43:16;10.10;99.90
26599;DHT22;14240;51.064;16.612;2023-05-29T02:45:41;10.10;99.90
26599;DHT22;14240;51.064;16.612;2023-05-29T02:48:07;10.00;99.90
26599;DHT22;14240;51.064;16.612;2023-05-29T02:50:33;10.00;99.90
26599;DHT22;14240;51.064;16.612;2023-05-29T02:52:59;9.90;99.90
26599;DHT22;14240;51.064;16.612;2023-05-29T02:55:24;9.90;99.90
26599;DHT22;14240;51.064;16.612;2023-05-29T02:57:50;9.90;99.90
26599;DHT22;14240;51.064;16.612;2023-05-29T03:00:20;9.90;99.90
26599;DHT22;14240;51.064;16.612;2023-05-29T03:02:46;9.80;99.90
26599;DHT22;14240;51.064;16.612;2023-05-29T03:05:12;9.80;99.90
26599;DHT22;14240;51.064;16.612;2023-05-29T03:07:38;9.80;99.90
26599;DHT22;14240;51.064;16.612;2023-05-29T03:10:04;9.80;99.90
26599;DHT22;14240;51.064;16.612;2023-05-29T03:12:33;9.70;99.90
26599;DHT22;14240;51.064;16.612;2023-05-29T03:15:07;9.70;99.90
26599;DHT22;14240;51.064;16.612;2023-05-29T03:17:36;9.70;99.90
26599;DHT22;14240;51.064;16.612;2023-05-29T03:20:10;9.70;99.90
26599;DHT22;14240;51.064;16.612;2023-05-29T03:22:36;9.70;99.90
26599;DHT22;14240;51.064;16.612;2023-05-29T03:25:03;9.60;99.90
26599;DHT22;14240;51.064;16.612;2023-05-29T03:27:30;9.60;99.90
26599;DHT22;14240;51.064;16.612;2023-05-29T03:29:56;9.60;99.90
26599;DHT22;14240;51.064;16.612;2023-05-29T03:32:23;9.70;99.90
26599;DHT22;14240;51.064;16.612;2023-05-29T03:34:48;9.70;99.90
26599;DHT22;14240;51.064;16.612;2023-05-29T03:37:19;9.70;99.90
26599;DHT22;14240;51.064;16.612;2023-05-29T03:39:54;9.70;99.90
26599;DHT22;14240;51.064;16.612;2023-05-29T03:42:26;9.70;99.90
26599;DHT22;14240;51.064;16.612;2023-05-29T03:44:58;9.70;99.90
26599;DHT22;14240;51.064;16.612;2023-05-29T03:47:29;9.80;99.90
26599;DHT22;14240;51.064;16.612;2023-05-29T03:50:05;9.80;99.90
26599;DHT22;14240;51.064;16.612;2023-05-29T03:52:34;9.90;99.90
26599;DHT22;14240;51.064;16.612;2023-05-29T03:55:01;10.00;99.90
26599;DHT22;14240;51.064;16.612;2023-05-29T03:57:27;10.10;99.90
26599;DHT22;14240;51.064;16.612;2023-05-29T03:59:52;10.10;99.90
26599;DHT22;14240;51.064;16.612;2023-05-29T04:02:19;10.20;99.90
26599;DHT22;14240;51.064;16.612;2023-05-29T04:04:47;10.20;99.90
26599;DHT22;14240;51.064;16.612;2023-05-29T04:07:15;10.30;99.90
26599;DHT22;14240;51.064;16.612;2023-05-29T04:09:43;10.30;99.90
26599;DHT22;14240;51.064;16.612;2023-05-29T04:12:09;10.40;99.90
26599;DHT22;14240;51.064;16.612;2023-05-29T04:14:34;10.40;99.90
26599;DHT22;14240;51.064;16.612;2023-05-29T04:17:00;10.40;99.90
26599;DHT22;14240;51.064;16.612;2023-05-29T04:19:25;10.40;99.90
26599;DHT22;14240;51.064;16.612;2023-05-29T04:21:51;10.50;99.90
26599;DHT22;14240;51.064;16.612;2023-05-29T04:24:17;10.50;99.90
26599;DHT22;14240;51.064;16.612;2023-05-29T04:26:44;10.50;99.90
26599;DHT22;14240;51.064;16.612;2023-05-29T04:29:11;10.70;99.90
26599;DHT22;14240;51.064;16.612;2023-05-29T04:31:38;10.70;99.90
26599;DHT22;14240;51.064;16.612;2023-05-29T04:34:03;10.80;99.90
26599;DHT22;14240;51.064;16.612;2023-05-29T04:36:32;11.00;99.90
26599;DHT22;14240;51.064;16.612;2023-05-29T04:39:02;11.10;99.90
26599;DHT22;14240;51.064;16.612;2023-05-29T04:41:30;11.20;99.90
26599;DHT22;14240;51.064;16.612;2023-05-29T04:43:57;11.30;99.90
26599;DHT22;14240;51.064;16.612;2023-05-29T04:46:23;11.40;99.90
26599;DHT22;14240;51.064;16.612;2023-05-29T04:48:52;11.50;99.90
26599;DHT22;14240;51.064;16.612;2023-05-29T04:51:20;11.70;99.90
26599;DHT22;14240;51.064;16.612;2023-05-29T04:53:46;11.90;99.90
26599;DHT22;14240;51.064;16.612;2023-05-29T04:56:14;12.10;99.90
26599;DHT22;14240;51.064;16.612;2023-05-29T04:58:40;12.30;99.90
26599;DHT22;14240;51.064;16.612;2023-05-29T05:01:06;12.50;99.90
26599;DHT22;14240;51.064;16.612;2023-05-29T05:03:34;12.60;99.90
26599;DHT22;14240;51.064;16.612;2023-05-29T05:06:01;12.70;99.90
26599;DHT22;14240;51.064;16.612;2023-05-29T05:08:31;12.70;99.90
26599;DHT22;14240;51.064;16.612;2023-05-29T05:11:00;12.80;99.90
26599;DHT22;14240;51.064;16.612;2023-05-29T05:13:27;12.90;99.90
26599;DHT22;14240;51.064;16.612;2023-05-29T05:15:53;13.00;99.90
26599;DHT22;14240;51.064;16.612;2023-05-29T05:18:22;13.10;99.90
26599;DHT22;14240;51.064;16.612;2023-05-29T05:20:53;13.30;99.90
26599;DHT22;14240;51.064;16.612;2023-05-29T05:23:23;13.40;99.90
26599;DHT22;14240;51.064;16.612;2023-05-29T05:25:49;13.60;99.90
26599;DHT22;14240;51.064;16.612;2023-05-29T05:28:19;13.80;99.90
26599;DHT22;14240;51.064;16.612;2023-05-29T05:30:48;14.00;99.90
26599;DHT22;14240;51.064;16.612;2023-05-29T05:33:23;14.20;99.90
26599;DHT22;14240;51.064;16.612;2023-05-29T05:35:50;14.30;99.90
26599;DHT22;14240;51.064;16.612;2023-05-29T05:38:16;14.50;99.90
26599;DHT22;14240;51.064;16.612;2023-05-29T05:40:42;14.60;99.90
26599;DHT22;14240;51.064;16.612;2023-05-29T05:43:10;14.80;99.90
26599;DHT22;14240;51.064;16.612;2023-05-29T05:45:36;15.00;99.90
26599;DHT22;14240;51.064;16.612;2023-05-29T05:48:03;15.20;99.90
26599;DHT22;14240;51.064;16.612;2023-05-29T05:50:29;15.40;99.90
26599;DHT22;14240;51.064;16.612;2023-05-29T05:52:54;15.50;99.90
26599;DHT22;14240;51.064;16.612;2023-05-29T05:55:20;15.70;99.90
26599;DHT22;14240;51.064;16.612;2023-05-29T05:57:46;15.80;99.90
26599;DHT22;14240;51.064;16.612;2023-05-29T06:00:16;16.00;99.90
26599;DHT22;14240;51.064;16.612;2023-05-29T06:02:49;16.20;99.90
26599;DHT22;14240;51.064;16.612;2023-05-29T06:05:14;16.30;99.90
26599;DHT22;14240;51.064;16.612;2023-05-29T06:07:40;16.50;99.90
26599;DHT22;14240;51.064;16.612;2023-05-29T06:10:06;16.80;99.90
26599;DHT22;14240;51.064;16.612;2023-05-29T06:12:33;17.30;99.90
26599;DHT22;14240;51.064;16.612;2023-05-29T06:15:00;17.80;99.90
26599;DHT22;14240;51.064;16.612;2023-05-29T06:17:30;18.30;99.90
26599;DHT22;14240;51.064;16.612;2023-05-29T06:19:57;18.80;99.90
26599;DHT22;14240;51.064;16.612;2023-05-29T06:22:36;19.20;99.90
26599;DHT22;14240;51.064;16.612;2023-05-29T06:25:14;19.50;99.90
26599;DHT22;14240;51.064;16.612;2023-05-29T06:27:53;19.60;99.90
26599;DHT22;14240;51.064;16.612;2023-05-29T06:30:39;19.70;99.90
26599;DHT22;14240;51.064;16.612;2023-05-29T06:33:19;19.70;99.90
26599;DHT22;14240;51.064;16.612;2023-05-29T06:35:45;20.20;99.90
26599;DHT22;14240;51.064;16.612;2023-05-29T06:38:17;19.60;99.90
26599;DHT22;14240;51.064;16.612;2023-05-29T06:40:46;19.60;99.90
26599;DHT22;14240;51.064;16.612;2023-05-29T06:43:11;19.50;99.90
26599;DHT22;14240;51.064;16.612;2023-05-29T06:45:38;19.50;99.90
26599;DHT22;14240;51.064;16.612;2023-05-29T06:48:05;19.50;99.90
26599;DHT22;14240;51.064;16.612;2023-05-29T06:50:36;19.50;99.90
26599;DHT22;14240;51.064;16.612;2023-05-29T06:53:01;19.60;99.90
26599;DHT22;14240;51.064;16.612;2023-05-29T06:55:27;19.80;99.90
26599;DHT22;14240;51.064;16.612;2023-05-29T06:57:56;19.90;99.90
26599;DHT22;14240;51.064;16.612;2023-05-29T07:00:27;20.10;99.90
26599;DHT22;14240;51.064;16.612;2023-05-29T07:02:58;20.10;99.90
26599;DHT22;14240;51.064;16.612;2023-05-29T07:05:34;20.20;99.70
26599;DHT22;14240;51.064;16.612;2023-05-29T07:08:12;20.20;99.60
26599;DHT22;14240;51.064;16.612;2023-05-29T07:10:37;20.30;99.80
26599;DHT22;14240;51.064;16.612;2023-05-29T07:13:03;20.40;99.40
26599;DHT22;14240;51.064;16.612;2023-05-29T07:15:30;20.60;99.00
26599;DHT22;14240;51.064;16.612;2023-05-29T07:18:01;20.70;98.70
26599;DHT22;14240;51.064;16.612;2023-05-29T07:20:39;20.90;98.80
26599;DHT22;14240;51.064;16.612;2023-05-29T07:23:05;21.10;98.40
26599;DHT22;14240;51.064;16.612;2023-05-29T07:25:30;21.20;98.30
26599;DHT22;14240;51.064;16.612;2023-05-29T07:27:59;21.30;97.90
26599;DHT22;14240;51.064;16.612;2023-05-29T07:30:26;21.40;98.00
26599;DHT22;14240;51.064;16.612;2023-05-29T07:32:55;21.40;97.60
26599;DHT22;14240;51.064;16.612;2023-05-29T07:35:25;21.50;97.90
26599;DHT22;14240;51.064;16.612;2023-05-29T07:37:51;21.60;97.70
26599;DHT22;14240;51.064;16.612;2023-05-29T07:40:17;21.80;97.20
26599;DHT22;14240;51.064;16.612;2023-05-29T07:42:43;21.90;96.80
26599;DHT22;14240;51.064;16.612;2023-05-29T07:45:09;22.10;96.80
26599;DHT22;14240;51.064;16.612;2023-05-29T07:47:34;22.30;96.50
26599;DHT22;14240;51.064;16.612;2023-05-29T07:50:00;22.30;96.20
26599;DHT22;14240;51.064;16.612;2023-05-29T07:52:26;22.40;96.50
26599;DHT22;14240;51.064;16.612;2023-05-29T07:54:52;22.50;96.50
26599;DHT22;14240;51.064;16.612;2023-05-29T07:57:18;22.60;95.90
26599;DHT22;14240;51.064;16.612;2023-05-29T07:59:43;22.70;95.20
26599;DHT22;14240;51.064;16.612;2023-05-29T08:02:09;22.90;94.70
26599;DHT22;14240;51.064;16.612;2023-05-29T08:04:35;22.90;94.80
26599;DHT22;14240;51.064;16.612;2023-05-29T08:07:02;23.00;95.60
26599;DHT22;14240;51.064;16.612;2023-05-29T08:09:29;23.00;94.40
26599;DHT22;14240;51.064;16.612;2023-05-29T08:11:54;23.10;94.30
26599;DHT22;14240;51.064;16.612;2023-05-29T08:14:20;23.20;94.50
26599;DHT22;14240;51.064;16.612;2023-05-29T08:16:46;23.30;93.50
26599;DHT22;14240;51.064;16.612;2023-05-29T08:19:12;23.50;92.60
26599;DHT22;14240;51.064;16.612;2023-05-29T08:21:37;23.60;92.70
26599;DHT22;14240;51.064;16.612;2023-05-29T08:24:03;23.60;92.50
26599;DHT22;14240;51.064;16.612;2023-05-29T08:26:32;23.70;91.30
26599;DHT22;14240;51.064;16.612;2023-05-29T08:28:58;23.70;90.70
26599;DHT22;14240;51.064;16.612;2023-05-29T08:31:23;23.80;90.00
26599;DHT22;14240;51.064;16.612;2023-05-29T08:33:51;23.90;90.00
26599;DHT22;14240;51.064;16.612;2023-05-29T08:36:17;24.00;89.80
26599;DHT22;14240;51.064;16.612;2023-05-29T08:38:43;24.10;88.40
26599;DHT22;14240;51.064;16.612;2023-05-29T08:41:13;24.30;87.40
26599;DHT22;14240;51.064;16.612;2023-05-29T08:43:41;24.40;85.40
26599;DHT22;14240;51.064;16.612;2023-05-29T08:46:07;24.50;87.30
26599;DHT22;14240;51.064;16.612;2023-05-29T08:48:36;24.50;86.60
26599;DHT22;14240;51.064;16.612;2023-05-29T08:51:05;24.60;86.50
26599;DHT22;14240;51.064;16.612;2023-05-29T08:53:32;24.50;84.60
26599;DHT22;14240;51.064;16.612;2023-05-29T08:55:59;24.60;82.80
26599;DHT22;14240;51.064;16.612;2023-05-29T08:58:26;24.60;82.70
26599;DHT22;14240;51.064;16.612;2023-05-29T09:00:55;24.60;81.90
26599;DHT22;14240;51.064;16.612;2023-05-29T09:03:24;24.60;79.90
26599;DHT22;14240;51.064;16.612;2023-05-29T09:05:50;24.60;82.60
26599;DHT22;14240;51.064;16.612;2023-05-29T09:08:16;24.60;84.20
26599;DHT22;14240;51.064;16.612;2023-05-29T09:10:42;24.70;82.10
26599;DHT22;14240;51.064;16.612;2023-05-29T09:13:09;24.70;82.20
26599;DHT22;14240;51.064;16.612;2023-05-29T09:15:36;24.70;80.80
26599;DHT22;14240;51.064;16.612;2023-05-29T09:18:04;24.80;80.20
26599;DHT22;14240;51.064;16.612;2023-05-29T09:20:30;24.80;79.00
26599;DHT22;14240;51.064;16.612;2023-05-29T09:23:01;24.80;77.00
26599;DHT22;14240;51.064;16.612;2023-05-29T09:25:30;24.80;75.30
26599;DHT22;14240;51.064;16.612;2023-05-29T09:28:00;24.80;75.00
26599;DHT22;14240;51.064;16.612;2023-05-29T09:30:32;24.90;77.90
26599;DHT22;14240;51.064;16.612;2023-05-29T09:32:59;24.90;75.40
26599;DHT22;14240;51.064;16.612;2023-05-29T09:35:33;24.90;76.70
26599;DHT22;14240;51.064;16.612;2023-05-29T09:37:58;25.00;76.80
26599;DHT22;14240;51.064;16.612;2023-05-29T09:40:24;25.00;77.20
26599;DHT22;14240;51.064;16.612;2023-05-29T09:42:50;25.00;76.30
26599;DHT22;14240;51.064;16.612;2023-05-29T09:45:20;25.00;75.10
26599;DHT22;14240;51.064;16.612;2023-05-29T09:47:47;25.00;75.10
26599;DHT22;14240;51.064;16.612;2023-05-29T09:50:21;25.00;75.40
26599;DHT22;14240;51.064;16.612;2023-05-29T09:52:50;25.10;74.20
26599;DHT22;14240;51.064;16.612;2023-05-29T09:55:23;25.10;74.10
26599;DHT22;14240;51.064;16.612;2023-05-29T09:57:48;25.10;72.90
26599;DHT22;14240;51.064;16.612;2023-05-29T10:00:16;25.10;71.10
26599;DHT22;14240;51.064;16.612;2023-05-29T10:02:42;25.20;71.90
26599;DHT22;14240;51.064;16.612;2023-05-29T10:05:09;25.20;70.00
26599;DHT22;14240;51.064;16.612;2023-05-29T10:07:36;25.20;70.60
26599;DHT22;14240;51.064;16.612;2023-05-29T10:10:04;25.20;71.70
26599;DHT22;14240;51.064;16.612;2023-05-29T10:12:38;25.10;72.70
26599;DHT22;14240;51.064;16.612;2023-05-29T10:15:15;25.10;73.40
26599;DHT22;14240;51.064;16.612;2023-05-29T10:20:13;25.20;74.20
26599;DHT22;14240;51.064;16.612;2023-05-29T10:22:45;25.30;73.60
26599;DHT22;14240;51.064;16.612;2023-05-29T10:25:13;25.40;71.40
26599;DHT22;14240;51.064;16.612;2023-05-29T10:27:39;25.50;70.80
26599;DHT22;14240;51.064;16.612;2023-05-29T10:30:37;25.60;71.90
26599;DHT22;14240;51.064;16.612;2023-05-29T10:38:30;25.50;70.60
26599;DHT22;14240;51.064;16.612;2023-05-29T10:43:55;25.40;71.10
26599;DHT22;14240;51.064;16.612;2023-05-29T10:46:21;25.50;70.90
26599;DHT22;14240;51.064;16.612;2023-05-29T10:48:51;25.50;69.90
26599;DHT22;14240;51.064;16.612;2023-05-29T10:51:28;25.50;68.90
26599;DHT22;14240;51.064;16.612;2023-05-29T10:53:56;25.50;68.30
26599;DHT22;14240;51.064;16.612;2023-05-29T10:56:23;25.60;66.10
26599;DHT22;14240;51.064;16.612;2023-05-29T10:58:52;25.50;65.00
26599;DHT22;14240;51.064;16.612;2023-05-29T11:01:21;25.50;66.80
26599;DHT22;14240;51.064;16.612;2023-05-29T11:03:47;25.50;65.80
26599;DHT22;14240;51.064;16.612;2023-05-29T11:06:20;25.50;64.70
26599;DHT22;14240;51.064;16.612;2023-05-29T11:08:56;25.50;63.70
26599;DHT22;14240;51.064;16.612;2023-05-29T11:11:29;25.40;66.00
26599;DHT22;14240;51.064;16.612;2023-05-29T11:14:00;25.40;65.40
26599;DHT22;14240;51.064;16.612;2023-05-29T11:18:59;25.40;66.30
26599;DHT22;14240;51.064;16.612;2023-05-29T11:23:52;25.60;65.20
26599;DHT22;14240;51.064;16.612;2023-05-29T11:26:23;25.50;64.00
26599;DHT22;14240;51.064;16.612;2023-05-29T11:28:49;25.50;62.30
26599;DHT22;14240;51.064;16.612;2023-05-29T11:31:15;25.50;63.80
26599;DHT22;14240;51.064;16.612;2023-05-29T11:33:47;25.50;64.20
26599;DHT22;14240;51.064;16.612;2023-05-29T11:36:14;25.50;63.90
26599;DHT22;14240;51.064;16.612;2023-05-29T11:38:40;25.50;62.60
26599;DHT22;14240;51.064;16.612;2023-05-29T11:41:06;25.40;61.30
26599;DHT22;14240;51.064;16.612;2023-05-29T11:43:32;25.40;63.30
26599;DHT22;14240;51.064;16.612;2023-05-29T11:45:58;25.40;65.60
26599;DHT22;14240;51.064;16.612;2023-05-29T11:48:24;25.40;65.40
26599;DHT22;14240;51.064;16.612;2023-05-29T11:50:50;25.40;66.10
26599;DHT22;14240;51.064;16.612;2023-05-29T11:53:15;25.60;63.90
26599;DHT22;14240;51.064;16.612;2023-05-29T11:55:41;25.50;62.90
26599;DHT22;14240;51.064;16.612;2023-05-29T11:58:07;25.50;62.50
26599;DHT22;14240;51.064;16.612;2023-05-29T12:00:37;25.60;62.50
26599;DHT22;14240;51.064;16.612;2023-05-29T12:03:04;25.60;61.10
26599;DHT22;14240;51.064;16.612;2023-05-29T12:05:31;25.80;62.70
26599;DHT22;14240;51.064;16.612;2023-05-29T12:07:58;25.80;62.00
26599;DHT22;14240;51.064;16.612;2023-05-29T12:10:27;25.80;64.90
26599;DHT22;14240;51.064;16.612;2023-05-29T12:12:55;25.90;64.70
26599;DHT22;14240;51.064;16.612;2023-05-29T12:15:21;25.90;63.80
26599;DHT22;14240;51.064;16.612;2023-05-29T12:17:49;25.90;63.60
26599;DHT22;14240;51.064;16.612;2023-05-29T12:20:15;25.90;63.80
26599;DHT22;14240;51.064;16.612;2023-05-29T12:22:43;25.90;63.80
26599;DHT22;14240;51.064;16.612;2023-05-29T12:25:13;25.90;63.30
26599;DHT22;14240;51.064;16.612;2023-05-29T12:27:40;25.80;65.40
26599;DHT22;14240;51.064;16.612;2023-05-29T12:32:38;25.90;62.10
26599;DHT22;14240;51.064;16.612;2023-05-29T12:35:26;26.00;62.60
26599;DHT22;14240;51.064;16.612;2023-05-29T12:42:59;26.10;63.50
26599;DHT22;14240;51.064;16.612;2023-05-29T12:45:26;26.00;63.90
26599;DHT22;14240;51.064;16.612;2023-05-29T12:47:54;26.00;64.10
26599;DHT22;14240;51.064;16.612;2023-05-29T12:55:23;25.90;63.30
26599;DHT22;14240;51.064;16.612;2023-05-29T12:57:49;25.90;62.50
26599;DHT22;14240;51.064;16.612;2023-05-29T13:00:15;25.90;62.20
26599;DHT22;14240;51.064;16.612;2023-05-29T13:02:40;25.90;61.30
26599;DHT22;14240;51.064;16.612;2023-05-29T13:05:06;26.00;62.20
26599;DHT22;14240;51.064;16.612;2023-05-29T13:07:33;26.00;61.20
26599;DHT22;14240;51.064;16.612;2023-05-29T13:09:59;25.90;62.00
26599;DHT22;14240;51.064;16.612;2023-05-29T13:12:25;25.80;62.40
26599;DHT22;14240;51.064;16.612;2023-05-29T13:14:51;25.80;61.70
26599;DHT22;14240;51.064;16.612;2023-05-29T13:17:16;25.80;62.10
26599;DHT22;14240;51.064;16.612;2023-05-29T13:19:43;25.80;63.00
26599;DHT22;14240;51.064;16.612;2023-05-29T13:22:08;25.80;63.70
26599;DHT22;14240;51.064;16.612;2023-05-29T13:24:34;25.80;63.10
26599;DHT22;14240;51.064;16.612;2023-05-29T13:27:00;25.80;64.00
26599;DHT22;14240;51.064;16.612;2023-05-29T13:29:26;25.80;62.50
26599;DHT22;14240;51.064;16.612;2023-05-29T13:31:52;25.80;63.10
26599;DHT22;14240;51.064;16.612;2023-05-29T13:34:18;25.70;61.80
26599;DHT22;14240;51.064;16.612;2023-05-29T13:36:43;25.70;62.70
26599;DHT22;14240;51.064;16.612;2023-05-29T13:39:10;25.60;63.10
26599;DHT22;14240;51.064;16.612;2023-05-29T13:41:36;25.60;62.90
26599;DHT22;14240;51.064;16.612;2023-05-29T13:44:02;25.70;63.60
26599;DHT22;14240;51.064;16.612;2023-05-29T13:46:28;25.80;62.50
26599;DHT22;14240;51.064;16.612;2023-05-29T13:48:53;25.80;61.90
26599;DHT22;14240;51.064;16.612;2023-05-29T13:51:19;25.90;61.50
26599;DHT22;14240;51.064;16.612;2023-05-29T13:53:45;25.90;62.20
26599;DHT22;14240;51.064;16.612;2023-05-29T13:56:10;25.90;61.60
26599;DHT22;14240;51.064;16.612;2023-05-29T13:58:36;25.90;61.50
26599;DHT22;14240;51.064;16.612;2023-05-29T14:01:01;25.90;61.00
26599;DHT22;14240;51.064;16.612;2023-05-29T14:03:27;25.90;62.90
26599;DHT22;14240;51.064;16.612;2023-05-29T14:05:54;25.80;64.00
26599;DHT22;14240;51.064;16.612;2023-05-29T14:08:20;25.70;65.90
26599;DHT22;14240;51.064;16.612;2023-05-29T14:10:46;25.60;65.50
26599;DHT22;14240;51.064;16.612;2023-05-29T14:13:11;25.60;65.00
26599;DHT22;14240;51.064;16.612;2023-05-29T14:15:37;25.50;64.40
26599;DHT22;14240;51.064;16.612;2023-05-29T14:18:03;25.40;64.90
26599;DHT22;14240;51.064;16.612;2023-05-29T14:20:28;25.30;64.90
26599;DHT22;14240;51.064;16.612;2023-05-29T14:22:54;25.30;65.10
26599;DHT22;14240;51.064;16.612;2023-05-29T14:25:20;25.20;66.20
26599;DHT22;14240;51.064;16.612;2023-05-29T14:27:46;25.20;65.40
26599;DHT22;14240;51.064;16.612;2023-05-29T14:30:12;25.10;65.90
26599;DHT22;14240;51.064;16.612;2023-05-29T14:32:37;25.10;66.20
26599;DHT22;14240;51.064;16.612;2023-05-29T14:35:03;25.10;65.70
26599;DHT22;14240;51.064;16.612;2023-05-29T14:37:29;25.10;64.80
26599;DHT22;14240;51.064;16.612;2023-05-29T14:39:54;25.10;65.60
26599;DHT22;14240;51.064;16.612;2023-05-29T14:42:20;25.10;65.00
26599;DHT22;14240;51.064;16.612;2023-05-29T14:44:47;25.00;64.40
26599;DHT22;14240;51.064;16.612;2023-05-29T14:47:12;25.00;65.50
26599;DHT22;14240;51.064;16.612;2023-05-29T14:49:39;25.00;65.30
26599;DHT22;14240;51.064;16.612;2023-05-29T14:52:05;24.90;66.50
26599;DHT22;14240;51.064;16.612;2023-05-29T14:54:30;24.90;68.00
26599;DHT22;14240;51.064;16.612;2023-05-29T14:56:56;24.90;68.80
26599;DHT22;14240;51.064;16.612;2023-05-29T14:59:23;24.80;69.60
26599;DHT22;14240;51.064;16.612;2023-05-29T15:01:49;24.70;69.60
26599;DHT22;14240;51.064;16.612;2023-05-29T15:04:16;24.60;69.20
26599;DHT22;14240;51.064;16.612;2023-05-29T15:06:41;24.60;68.50
26599;DHT22;14240;51.064;16.612;2023-05-29T15:09:07;24.60;69.20
26599;DHT22;14240;51.064;16.612;2023-05-29T15:11:33;24.50;69.90
26599;DHT22;14240;51.064;16.612;2023-05-29T15:13:58;24.50;69.80
26599;DHT22;14240;51.064;16.612;2023-05-29T15:16:24;24.40;70.50
26599;DHT22;14240;51.064;16.612;2023-05-29T15:18:50;24.30;72.40
26599;DHT22;14240;51.064;16.612;2023-05-29T15:21:16;24.20;72.60
26599;DHT22;14240;51.064;16.612;2023-05-29T15:23:41;24.20;73.90
26599;DHT22;14240;51.064;16.612;2023-05-29T15:26:09;24.10;74.90
26599;DHT22;14240;51.064;16.612;2023-05-29T15:28:35;24.00;75.60
26599;DHT22;14240;51.064;16.612;2023-05-29T15:31:01;24.00;76.40
26599;DHT22;14240;51.064;16.612;2023-05-29T15:33:27;24.00;75.40
26599;DHT22;14240;51.064;16.612;2023-05-29T15:35:52;23.90;75.70
26599;DHT22;14240;51.064;16.612;2023-05-29T15:38:18;23.90;75.20
26599;DHT22;14240;51.064;16.612;2023-05-29T15:40:44;23.90;75.40
26599;DHT22;14240;51.064;16.612;2023-05-29T15:43:10;23.90;73.80
26599;DHT22;14240;51.064;16.612;2023-05-29T15:45:39;23.90;75.20
26599;DHT22;14240;51.064;16.612;2023-05-29T15:48:05;23.90;73.80
26599;DHT22;14240;51.064;16.612;2023-05-29T15:50:31;23.80;73.40
26599;DHT22;14240;51.064;16.612;2023-05-29T15:52:56;23.80;72.60
26599;DHT22;14240;51.064;16.612;2023-05-29T15:55:23;23.80;73.70
26599;DHT22;14240;51.064;16.612;2023-05-29T15:57:48;23.70;74.00
26599;DHT22;14240;51.064;16.612;2023-05-29T16:00:15;23.70;74.80
26599;DHT22;14240;51.064;16.612;2023-05-29T16:02:41;23.80;75.40